Time;durP1;ratioP1;P1;durP2;ratioP2;P2;SDS_P1;SDS_P2;PMS_P1;PMS_P2;Temp;Humidity;BMP_temperature;BMP_pressure;BME280_temperature;BME280_humidity;BME280_pressure;Samples;Min_cycle;Max_cycle;Signal;HPM_P1;HPM_P2
2022/08/22 00:01:27;;;;;;;10.30;3.40;;;;;;;18.41;100.00;101616.03;5042007;28;20051;-71
2022/08/22 00:04:18;;;;;;;11.02;3.30;;;;;;;18.42;100.00;101620.47;5041457;28;20044;-71
2022/08/22 00:07:00;;;;;;;10.00;2.83;;;;;;;18.45;100.00;101620.44;5053882;28;20036;-71
2022/08/22 00:09:42;;;;;;;13.27;3.33;;;;;;;18.46;100.00;101624.91;5053598;28;20039;-70
2022/08/22 00:12:19;;;;;;;9.43;2.72;;;;;;;18.43;100.00;101627.53;5047071;28;20112;-72
2022/08/22 00:14:52;;;;;;;13.52;2.92;;;;;;;18.42;100.00;101620.47;5041037;28;20027;-73
2022/08/22 00:17:51;;;;;;;7.77;3.27;;;;;;;18.41;100.00;101623.13;5043159;28;20032;-72
2022/08/22 00:20:31;;;;;;;9.38;2.65;;;;;;;18.40;100.00;101624.91;5050047;28;20431;-72
2022/08/22 00:23:20;;;;;;;8.98;2.95;;;;;;;18.42;100.00;101620.47;5043492;28;20044;-72
2022/08/22 00:25:57;;;;;;;9.85;2.95;;;;;;;18.43;100.00;101621.34;5045486;28;20436;-72
2022/08/22 00:28:32;;;;;;;9.23;2.60;;;;;;;18.44;100.00;101624.00;5046046;28;20025;-70
2022/08/22 00:31:17;;;;;;;8.98;3.05;;;;;;;18.42;100.00;101624.91;5053718;28;20099;-72
2022/08/22 00:34:06;;;;;;;10.20;2.60;;;;;;;18.43;100.00;101621.34;5051725;28;20032;-72
2022/08/22 00:36:38;;;;;;;9.15;3.03;;;;;;;18.39;100.00;101620.47;5053654;28;20396;-72
2022/08/22 00:39:17;;;;;;;10.48;3.33;;;;;;;18.38;100.00;101624.03;5047278;28;20025;-71
2022/08/22 00:41:43;;;;;;;7.18;2.88;;;;;;;18.37;100.00;101628.47;5052441;28;20488;-71
2022/08/22 00:44:27;;;;;;;10.65;3.00;;;;;;;18.33;100.00;101625.81;5051826;28;20064;-71
2022/08/22 00:47:35;;;;;;;10.02;3.40;;;;;;;18.32;100.00;101624.03;5042614;28;20109;-72
2022/08/22 00:50:06;;;;;;;8.15;3.10;;;;;;;18.26;100.00;101621.38;5035059;28;20021;-71
2022/08/22 00:53:09;;;;;;;6.95;3.35;;;;;;;18.20;100.00;101617.88;5053130;28;20032;-71
2022/08/22 00:55:59;;;;;;;9.60;3.10;;;;;;;18.20;100.00;101623.19;5048375;28;20554;-71
2022/08/22 00:58:44;;;;;;;17.25;3.50;;;;;;;18.17;100.00;101619.66;5034538;28;20021;-72
2022/08/22 01:01:12;;;;;;;8.13;3.13;;;;;;;18.17;100.00;101620.53;5042710;28;20089;-72
2022/08/22 01:03:51;;;;;;;15.70;4.45;;;;;;;18.20;100.00;101619.63;5052955;28;20483;-71
2022/08/22 01:06:25;;;;;;;14.80;4.07;;;;;;;18.22;100.00;101620.53;5052676;28;20029;-71
2022/08/22 01:09:09;;;;;;;10.60;3.58;;;;;;;18.24;100.00;101623.19;5034912;28;20373;-72
2022/08/22 01:12:10;;;;;;;11.43;3.95;;;;;;;18.25;100.00;101624.97;5037832;28;20053;-72
2022/08/22 01:14:46;;;;;;;9.55;3.50;;;;;;;18.25;100.00;101617.84;5033671;28;20480;-72
2022/08/22 01:17:17;;;;;;;10.15;4.00;;;;;;;18.27;100.00;101620.50;5041048;28;20376;-72
2022/08/22 01:20:23;;;;;;;14.00;3.63;;;;;;;18.26;100.00;101616.97;5033526;28;20394;-70
2022/08/22 01:23:23;;;;;;;12.57;3.50;;;;;;;18.24;100.00;101625.84;5039763;28;20081;-72
2022/08/22 01:26:21;;;;;;;12.50;3.70;;;;;;;18.19;100.00;101625.84;5039473;28;20132;-72
2022/08/22 01:29:05;;;;;;;9.50;4.90;;;;;;;18.10;100.00;101621.44;5044031;28;20427;-72
2022/08/22 01:32:18;;;;;;;14.20;5.18;;;;;;;18.06;100.00;101630.31;5039530;28;20025;-72
2022/08/22 01:35:13;;;;;;;14.80;4.68;;;;;;;17.99;100.00;101631.22;5047035;28;20035;-71
2022/08/22 01:38:03;;;;;;;14.70;4.40;;;;;;;18.00;100.00;101630.31;5011244;28;20393;-73
2022/08/22 01:40:42;;;;;;;9.25;4.30;;;;;;;17.98;100.00;101630.31;5038507;28;20476;-71
2022/08/22 01:43:19;;;;;;;11.68;5.03;;;;;;;17.95;100.00;101630.34;5036786;28;20029;-71
2022/08/22 01:46:13;;;;;;;11.48;5.15;;;;;;;17.92;100.00;101646.31;5048167;28;20021;-72
2022/08/22 01:48:53;;;;;;;19.90;5.10;;;;;;;17.90;100.00;101636.53;5044550;28;20036;-72
2022/08/22 01:51:30;;;;;;;14.43;4.70;;;;;;;17.86;100.00;101638.31;5043366;28;20025;-72
2022/08/22 01:54:09;;;;;;;10.02;4.38;;;;;;;17.84;100.00;101648.94;5052998;28;20033;-73
2022/08/22 01:56:40;;;;;;;13.00;4.30;;;;;;;17.80;100.00;101641.84;5049375;28;20028;-72
2022/08/22 01:59:09;;;;;;;9.52;4.55;;;;;;;17.81;100.00;101642.72;5037587;28;20029;-72
2022/08/22 02:01:43;;;;;;;19.45;4.82;;;;;;;17.79;100.00;101629.44;5044939;28;20025;-72
2022/08/22 02:04:29;;;;;;;8.90;4.45;;;;;;;17.83;100.00;101633.00;5033094;28;20024;-72
2022/08/22 02:07:16;;;;;;;11.13;4.80;;;;;;;17.83;100.00;101635.66;5032563;28;20054;-71
2022/08/22 02:09:59;;;;;;;11.27;4.03;;;;;;;17.84;100.00;101638.31;5032740;28;20029;-72
2022/08/22 02:12:25;;;;;;;;;;;;;;;17.81;100.00;101635.66;5053585;28;20052;-72
2022/08/22 02:15:12;;;;;;;14.43;4.40;;;;;;;17.81;100.00;101627.66;5042061;28;19917;-71
2022/08/22 02:17:53;;;;;;;9.50;3.92;;;;;;;17.80;100.00;101628.56;5048009;28;20094;-72
2022/08/22 02:20:31;;;;;;;9.52;4.25;;;;;;;17.79;100.00;101625.91;5040209;28;20028;-72
2022/08/22 02:23:07;;;;;;;10.95;3.83;;;;;;;17.79;100.00;101623.22;5033351;28;20061;-73
2022/08/22 02:25:47;;;;;;;7.40;3.58;;;;;;;17.81;100.00;101626.75;5047395;28;20047;-72
2022/08/22 02:28:28;;;;;;;12.73;4.60;;;;;;;17.78;100.00;101624.97;5033319;28;20112;-71
2022/08/22 02:31:13;;;;;;;9.85;3.65;;;;;;;17.79;100.00;101617.91;5046805;28;20029;-72
2022/08/22 02:33:41;;;;;;;12.45;4.43;;;;;;;17.76;100.00;101613.47;5039707;28;20029;-72
2022/08/22 02:36:24;;;;;;;11.48;4.43;;;;;;;17.73;100.00;101613.47;5042804;28;20057;-73
2022/08/22 02:39:06;;;;;;;11.43;4.50;;;;;;;17.70;100.00;101613.47;5052534;28;20032;-72
2022/08/22 02:41:53;;;;;;;11.93;4.75;;;;;;;17.70;100.00;101613.47;5035976;28;20029;-72
2022/08/22 02:44:27;;;;;;;12.98;4.68;;;;;;;17.71;100.00;101615.25;5038076;28;20380;-72
2022/08/22 02:47:02;;;;;;;15.18;4.63;;;;;;;17.70;100.00;101616.13;5063049;28;20100;-71
2022/08/22 02:49:35;;;;;;;11.80;4.35;;;;;;;17.68;100.00;101617.91;5040747;28;20037;-72
2022/08/22 02:52:08;;;;;;;8.02;4.05;;;;;;;17.71;100.00;101612.56;5032759;28;20025;-72
2022/08/22 02:55:18;;;;;;;17.05;4.57;;;;;;;17.69;100.00;101615.25;5037990;28;20053;-72
2022/08/22 02:57:52;;;;;;;9.65;4.10;;;;;;;17.68;100.00;101617.91;5012086;28;20030;-72
2022/08/22 03:00:51;;;;;;;11.90;4.15;;;;;;;17.67;100.00;101613.47;5026067;28;20112;-72
2022/08/22 03:03:22;;;;;;;7.10;4.10;;;;;;;17.62;100.00;101605.50;5034057;28;20123;-73
2022/08/22 03:06:26;;;;;;;10.40;3.83;;;;;;;17.64;100.00;101598.38;5036486;28;20104;-72
2022/08/22 03:09:05;;;;;;;10.85;3.47;;;;;;;17.66;100.00;101601.03;5022201;28;20053;-72
2022/08/22 03:11:36;;;;;;;8.20;3.30;;;;;;;17.67;100.00;101608.16;5046859;28;20056;-72
2022/08/22 03:14:14;;;;;;;9.82;3.35;;;;;;;17.66;100.00;101595.72;5052581;28;20029;-73
2022/08/22 03:16:52;;;;;;;6.85;2.95;;;;;;;17.65;100.00;101588.66;5039459;28;20061;-72
2022/08/22 03:19:51;;;;;;;9.00;3.15;;;;;;;17.64;100.00;101589.53;5051609;28;20039;-71
2022/08/22 03:22:25;;;;;;;12.93;3.40;;;;;;;17.63;100.00;101585.09;5055019;28;20103;-71
2022/08/22 03:25:03;;;;;;;9.38;3.25;;;;;;;17.62;100.00;101586.88;5042562;28;20040;-71
2022/08/22 03:27:41;;;;;;;6.88;3.08;;;;;;;17.63;100.00;101571.78;5039104;28;20469;-72
2022/08/22 03:30:11;;;;;;;10.13;3.15;;;;;;;17.57;100.00;101569.13;5045403;28;20115;-71
2022/08/22 03:32:47;;;;;;;11.13;3.08;;;;;;;17.52;100.00;101567.34;5054213;28;20439;-72
2022/08/22 03:35:24;;;;;;;11.05;3.33;;;;;;;17.47;100.00;101563.81;5037817;28;20110;-73
2022/08/22 03:37:55;;;;;;;9.38;3.10;;;;;;;17.45;100.00;101560.25;5041165;28;20030;-73
2022/08/22 03:40:56;;;;;;;9.23;3.45;;;;;;;17.41;100.00;101568.25;5037091;28;20049;-72
2022/08/22 03:43:36;;;;;;;9.95;3.22;;;;;;;17.35;100.00;101569.16;5023369;28;20045;-72
2022/08/22 03:46:26;;;;;;;13.45;3.83;;;;;;;17.33;100.00;101560.25;5043453;28;20488;-72
2022/08/22 03:48:55;;;;;;;14.35;3.83;;;;;;;17.30;100.00;101562.94;5045492;28;20128;-72
2022/08/22 03:51:45;;;;;;;10.38;3.20;;;;;;;17.29;100.00;101563.81;5047492;28;20064;-72
2022/08/22 03:54:27;;;;;;;10.00;3.45;;;;;;;17.26;100.00;101566.47;5035141;28;20117;-72
2022/08/22 03:57:35;;;;;;;10.98;3.25;;;;;;;17.23;100.00;101564.69;5036434;28;20026;-71
2022/08/22 04:00:04;;;;;;;8.90;3.08;;;;;;;17.17;100.00;101565.59;5040449;28;20039;-72
2022/08/22 04:02:42;;;;;;;9.82;3.20;;;;;;;17.16;100.00;101563.81;5063842;28;20103;-74
2022/08/22 04:05:22;;;;;;;8.13;3.20;;;;;;;17.14;100.00;101565.56;5053485;28;20112;-71
2022/08/22 04:08:24;;;;;;;8.57;3.03;;;;;;;17.19;100.00;101569.13;5054634;28;20045;-72
2022/08/22 04:11:05;;;;;;;7.07;2.88;;;;;;;17.21;100.00;101576.22;5040084;28;20034;-72
2022/08/22 04:13:54;;;;;;;8.23;2.78;;;;;;;17.13;100.00;101574.44;5034057;28;20469;-71
2022/08/22 04:16:41;;;;;;;10.38;2.67;;;;;;;17.13;100.00;101581.53;5042130;28;20033;-71
2022/08/22 04:19:34;;;;;;;14.77;3.10;;;;;;;17.11;100.00;101576.22;5034488;28;20035;-72
2022/08/22 04:22:32;;;;;;;11.00;3.33;;;;;;;17.05;100.00;101576.22;5035035;28;20056;-72
2022/08/22 04:25:16;;;;;;;7.97;3.35;;;;;;;17.04;100.00;101574.44;5056526;28;20016;-72
2022/08/22 04:27:54;;;;;;;;;;;;;;;17.03;100.00;101585.94;5048269;28;20026;-72
2022/08/22 04:30:41;;;;;;;13.77;2.95;;;;;;;17.02;100.00;101586.81;5047716;28;20402;-72
2022/08/22 04:33:27;;;;;;;8.00;2.78;;;;;;;17.01;100.00;101585.94;5051621;28;20082;-73
2022/08/22 04:36:01;;;;;;;11.68;2.90;;;;;;;16.96;100.00;101598.34;5053651;28;20025;-72
2022/08/22 04:38:27;;;;;;;8.15;2.55;;;;;;;16.91;100.00;101593.91;5035969;28;20037;-73
2022/08/22 04:41:34;;;;;;;7.65;2.95;;;;;;;16.87;100.00;101595.63;5033874;28;20048;-72
2022/08/22 04:44:09;;;;;;;9.98;3.00;;;;;;;16.88;100.00;101593.88;5005564;28;20207;-72
2022/08/22 04:46:51;;;;;;;7.57;2.80;;;;;;;16.83;100.00;101596.50;5039416;28;20485;-72
2022/08/22 04:49:23;;;;;;;12.30;3.10;;;;;;;16.80;100.00;101591.19;5034206;28;20033;-72
2022/08/22 04:52:26;;;;;;;9.13;3.00;;;;;;;16.78;100.00;101592.94;5033959;28;20026;-72
2022/08/22 04:55:16;;;;;;;10.13;2.97;;;;;;;16.74;100.00;101602.69;5040332;28;20099;-71
2022/08/22 04:58:08;;;;;;;9.57;2.72;;;;;;;16.73;100.00;101605.34;5051952;28;20060;-71
2022/08/22 05:00:40;;;;;;;7.80;2.78;;;;;;;16.71;100.00;101602.66;5049864;28;20021;-72
2022/08/22 05:03:14;;;;;;;8.68;2.88;;;;;;;16.68;100.00;101605.31;5038762;28;20041;-72
2022/08/22 05:05:43;;;;;;;8.40;3.70;;;;;;;16.68;100.00;101614.19;5037852;28;20021;-72
2022/08/22 05:08:12;;;;;;;10.23;3.13;;;;;;;16.67;100.00;101615.06;5052725;28;20053;-72
2022/08/22 05:10:41;;;;;;;11.57;3.35;;;;;;;16.66;100.00;101620.38;5042113;28;20075;-72
2022/08/22 05:13:13;;;;;;;9.20;2.85;;;;;;;16.67;100.00;101614.16;5033753;28;20492;-72
2022/08/22 05:15:52;;;;;;;14.10;4.27;;;;;;;16.68;100.00;101610.63;5037282;28;20029;-72
2022/08/22 05:18:30;;;;;;;11.75;3.40;;;;;;;16.68;100.00;101618.59;5053652;28;20017;-72
2022/08/22 05:21:01;;;;;;;9.77;3.67;;;;;;;16.71;100.00;101623.91;5042817;28;20079;-72
2022/08/22 05:23:33;;;;;;;11.65;4.55;;;;;;;16.70;100.00;101619.50;5033323;28;20113;-72
2022/08/22 05:26:02;;;;;;;11.25;3.03;;;;;;;16.68;100.00;101621.25;5041365;28;20024;-72
2022/08/22 05:28:31;;;;;;;13.60;3.63;;;;;;;16.64;100.00;101620.38;5050638;28;20029;-71
2022/08/22 05:30:57;;;;;;;9.60;3.00;;;;;;;16.62;100.00;101624.78;5046089;28;20056;-72
2022/08/22 05:33:28;;;;;;;9.57;3.65;;;;;;;16.60;100.00;101610.59;5051478;28;20032;-72
2022/08/22 05:36:00;;;;;;;12.23;3.15;;;;;;;16.59;100.00;101623.88;5045935;28;20036;-71
2022/08/22 05:38:30;;;;;;;11.80;4.00;;;;;;;16.57;100.00;101628.31;5051449;28;20492;-70
2022/08/22 05:41:04;;;;;;;13.55;3.72;;;;;;;16.56;100.00;101629.19;5044506;28;20477;-71
2022/08/22 05:43:34;;;;;;;8.52;3.75;;;;;;;16.55;100.00;101623.00;5046747;28;20562;-72
2022/08/22 05:46:01;;;;;;;12.23;3.67;;;;;;;16.55;100.00;101628.31;5033210;28;20037;-72
2022/08/22 05:48:39;;;;;;;11.57;3.72;;;;;;;16.55;100.00;101627.41;5033410;28;20037;-71
2022/08/22 05:51:15;;;;;;;12.18;3.55;;;;;;;16.57;100.00;101625.66;5036710;28;20052;-70
2022/08/22 05:53:45;;;;;;;9.90;3.70;;;;;;;16.60;100.00;101626.53;5038791;28;20027;-69
2022/08/22 05:56:44;;;;;;;17.85;4.13;;;;;;;16.63;100.00;101629.22;5051662;28;20376;-70
2022/08/22 05:59:24;;;;;;;9.80;4.13;;;;;;;16.72;100.00;101628.34;5035957;28;20024;-72
2022/08/22 06:02:02;;;;;;;10.75;3.60;;;;;;;16.79;100.00;101630.19;5052886;28;20036;-73
2022/08/22 06:04:46;;;;;;;15.20;5.13;;;;;;;16.88;100.00;101631.97;5035859;28;20026;-73
2022/08/22 06:07:31;;;;;;;;;;;;;;;16.92;100.00;101628.47;5038535;28;20064;-72
2022/08/22 06:10:16;;;;;;;14.75;5.70;;;;;;;16.96;100.00;101640.00;5037521;28;19913;-71
2022/08/22 06:12:54;;;;;;;11.45;4.82;;;;;;;17.02;100.00;101635.59;5041395;28;20021;-72
2022/08/22 06:15:22;;;;;;;10.60;4.90;;;;;;;17.10;100.00;101632.94;5046212;28;20082;-72
2022/08/22 06:17:52;;;;;;;10.35;4.38;;;;;;;17.22;100.00;101623.22;5040478;28;20053;-72
2022/08/22 06:20:25;;;;;;;14.93;5.30;;;;;;;17.33;100.00;101629.44;5042098;28;20112;-74
2022/08/22 06:22:58;;;;;;;14.57;5.05;;;;;;;17.41;100.00;101640.09;5049696;28;20032;-73
2022/08/22 06:25:28;;;;;;;15.18;4.32;;;;;;;17.49;100.00;101633.88;5043857;28;20025;-73
2022/08/22 06:27:57;;;;;;;14.13;4.40;;;;;;;17.56;100.00;101642.75;5041038;28;20098;-73
2022/08/22 06:30:27;;;;;;;10.45;4.47;;;;;;;17.62;100.00;101648.09;5041290;28;20109;-73
2022/08/22 06:32:55;;;;;;;17.98;5.03;;;;;;;17.70;100.00;101650.72;5041072;28;20485;-73
2022/08/22 06:38:32;;;;;;;9.25;4.40;;;;;;;17.74;100.00;101641.84;5037057;28;20071;-72
2022/08/22 06:41:01;;;;;;;11.55;4.68;;;;;;;17.81;100.00;101650.72;5040325;28;20017;-73
2022/08/22 06:43:32;;;;;;;15.73;4.50;;;;;;;17.81;100.00;101642.72;5051192;28;20033;-72
2022/08/22 06:45:59;;;;;;;19.15;5.30;;;;;;;17.83;100.00;101641.84;5048771;28;20021;-72
2022/08/22 06:48:25;;;;;;;8.82;4.35;;;;;;;17.83;100.00;101647.16;5055887;28;20028;-72
2022/08/22 06:50:56;;;;;;;19.42;5.18;;;;;;;17.85;100.00;101642.75;5053324;28;20036;-72
2022/08/22 06:53:35;;;;;;;12.27;4.13;;;;;;;17.90;100.00;101641.84;5035564;28;20036;-71
2022/08/22 06:56:04;;;;;;;13.65;4.63;;;;;;;17.92;100.00;101635.69;5049615;28;20381;-72
2022/08/22 06:58:41;;;;;;;18.80;5.10;;;;;;;17.95;100.00;101640.13;5047778;28;20078;-72
2022/08/22 07:01:23;;;;;;;16.33;5.00;;;;;;;17.93;100.00;101633.88;5043376;28;20044;-72
2022/08/22 07:03:52;;;;;;;17.08;5.53;;;;;;;17.94;100.00;101619.69;5054037;28;20021;-72
2022/08/22 07:06:29;;;;;;;13.05;5.03;;;;;;;17.99;100.00;101620.59;5052656;28;20033;-73
2022/08/22 07:08:56;;;;;;;11.77;4.88;;;;;;;18.03;100.00;101607.25;5039577;28;20034;-72
2022/08/22 07:11:26;;;;;;;15.77;4.78;;;;;;;18.08;100.00;101609.91;5046507;28;20047;-72
2022/08/22 07:14:05;;;;;;;10.70;4.75;;;;;;;18.13;100.00;101608.09;5048903;28;20032;-72
2022/08/22 07:16:34;;;;;;;15.65;4.38;;;;;;;18.21;100.00;101608.09;5043876;28;20387;-72
2022/08/22 07:19:00;;;;;;;14.70;4.80;;;;;;;18.28;100.00;101601.84;5039612;28;20045;-73
2022/08/22 07:21:31;;;;;;;15.77;4.85;;;;;;;18.37;100.00;101607.16;5040535;28;20043;-73
2022/08/22 07:24:00;;;;;;;17.67;4.35;;;;;;;18.46;100.00;101602.66;5050991;28;20685;-73
2022/08/22 07:26:37;;;;;;;21.25;4.50;;;;;;;18.53;100.00;101602.66;5064313;28;20120;-73
2022/08/22 07:29:21;;;;;;;12.88;4.28;;;;;;;18.63;100.00;101607.94;5062301;28;20472;-73
2022/08/22 07:32:10;;;;;;;11.98;4.00;;;;;;;18.71;100.00;101606.13;5036002;28;20072;-72
2022/08/22 07:35:03;;;;;;;10.18;4.32;;;;;;;18.80;100.00;101599.84;5047845;28;20382;-73
2022/08/22 07:37:43;;;;;;;7.68;3.97;;;;;;;18.92;100.00;101604.25;5068016;28;20115;-73
2022/08/22 07:40:18;;;;;;;11.07;4.05;;;;;;;18.98;100.00;101599.78;5051110;28;20496;-73
2022/08/22 07:42:51;;;;;;;30.65;5.07;;;;;;;19.07;100.00;101609.47;5052675;28;20028;-74
2022/08/22 07:45:25;;;;;;;11.68;4.88;;;;;;;19.13;100.00;101609.47;5046804;28;20055;-74
2022/08/22 07:48:22;;;;;;;21.13;6.43;;;;;;;19.21;100.00;101604.06;5049343;28;20040;-73
2022/08/22 07:51:06;;;;;;;17.67;5.18;;;;;;;19.30;100.00;101603.13;5044742;28;20071;-74
2022/08/22 07:53:43;;;;;;;19.88;4.22;;;;;;;19.38;100.00;101609.28;5067075;28;20027;-72
2022/08/22 07:56:15;;;;;;;17.10;4.32;;;;;;;19.45;100.00;101605.69;5048136;28;20420;-73
2022/08/22 07:58:45;;;;;;;25.40;4.45;;;;;;;19.54;100.00;101610.91;5042559;28;20029;-74
2022/08/22 08:01:16;;;;;;;17.13;4.40;;;;;;;19.66;100.00;101604.59;5034500;28;20039;-73
2022/08/22 08:03:48;;;;;;;9.20;4.00;;;;;;;19.76;100.00;101601.84;5035110;28;20112;-73
2022/08/22 08:06:14;;;;;;;10.48;4.43;;;;;;;19.86;100.00;101609.78;5038591;28;20108;-74
2022/08/22 08:08:43;;;;;;;16.40;5.38;;;;;;;19.97;100.00;101604.34;5056472;28;20548;-73
2022/08/22 08:11:13;;;;;;;12.75;4.07;;;;;;;20.12;100.00;101600.63;5035335;28;20106;-73
2022/08/22 08:13:43;;;;;;;10.25;4.38;;;;;;;20.27;100.00;101606.69;5035472;28;20025;-73
2022/08/22 08:16:16;;;;;;;12.63;4.43;;;;;;;20.38;100.00;101611.00;5044073;28;20030;-73
2022/08/22 08:18:45;;;;;;;12.60;4.03;;;;;;;20.53;100.00;101606.38;5042516;28;20057;-73
2022/08/22 08:21:27;;;;;;;13.88;4.13;;;;;;;20.65;100.00;101605.34;5040146;28;20469;-73
2022/08/22 08:23:54;;;;;;;11.98;4.63;;;;;;;20.72;100.00;101597.22;5061015;28;20376;-72
2022/08/22 08:26:30;;;;;;;13.02;3.97;;;;;;;20.81;100.00;101592.63;5047321;28;20121;-72
2022/08/22 08:28:57;;;;;;;11.35;4.22;;;;;;;20.91;100.00;101596.09;5038093;28;21824;-72
2022/08/22 08:31:34;;;;;;;10.55;3.60;;;;;;;21.01;100.00;101589.69;5039637;28;20021;-74
2022/08/22 08:34:16;;;;;;;19.48;3.97;;;;;;;21.10;100.00;101586.88;5035772;28;20036;-71
2022/08/22 08:36:44;;;;;;;11.18;3.10;;;;;;;21.26;100.00;101592.88;5048944;28;20381;-73
2022/08/22 08:39:28;;;;;;;9.35;3.95;;;;;;;21.32;100.00;101594.56;5035506;28;20037;-73
2022/08/22 08:42:08;;;;;;;15.07;4.20;;;;;;;21.44;100.00;101589.00;5036865;28;20104;-73
2022/08/22 08:44:36;;;;;;;12.13;3.45;;;;;;;21.58;100.00;101595.97;5040192;28;20025;-73
2022/08/22 08:47:14;;;;;;;10.40;2.55;;;;;;;21.68;100.00;101589.53;5040365;28;20064;-73
2022/08/22 08:49:42;;;;;;;10.43;3.40;;;;;;;21.75;100.00;101588.50;5043112;28;20028;-73
2022/08/22 08:52:10;;;;;;;11.07;3.13;;;;;;;21.81;100.00;101583.06;5034722;28;20025;-73
2022/08/22 08:55:08;;;;;;;10.55;3.60;;;;;;;21.92;100.00;101589.97;5035619;28;20033;-74
2022/08/22 08:57:39;;;;;;;8.13;3.17;;;;;;;21.97;100.00;101590.78;5041437;28;20029;-74
2022/08/22 09:00:13;;;;;;;11.82;3.25;;;;;;;22.02;100.00;101587.09;5042551;28;20029;-73
2022/08/22 09:03:03;;;;;;;10.88;2.55;;;;;;;22.15;100.00;101592.22;5041648;28;20037;-73
2022/08/22 09:05:31;;;;;;;16.58;3.50;;;;;;;22.21;100.00;101587.63;5041680;28;20028;-74
2022/08/22 09:08:33;;;;;;;11.93;2.60;;;;;;;22.34;100.00;101592.72;5048643;28;20061;-73
2022/08/22 09:11:15;;;;;;;9.70;2.80;;;;;;;22.40;100.00;101593.53;5038616;28;20473;-73
2022/08/22 09:14:21;;;;;;;6.68;2.40;;;;;;;22.58;100.00;101585.13;5043652;28;20020;-72
2022/08/22 09:17:04;;;;;;;8.98;2.60;;;;;;;22.70;100.00;101590.22;5045499;28;20029;-73
2022/08/22 09:20:07;;;;;;;11.27;2.70;;;;;;;22.80;100.00;101586.41;5040796;28;20120;-73
2022/08/22 09:23:09;;;;;;;13.15;3.05;;;;;;;22.94;100.00;101582.50;5055105;28;20120;-74
2022/08/22 09:25:50;;;;;;;12.27;2.70;;;;;;;23.08;100.00;101581.28;5048592;28;20108;-73
2022/08/22 09:28:28;;;;;;;14.32;2.97;;;;;;;23.13;100.00;101586.56;5046946;28;20056;-73
2022/08/22 09:31:28;;;;;;;9.98;3.20;;;;;;;23.30;100.00;101590.66;5043284;28;20029;-73
2022/08/22 09:34:06;;;;;;;5.20;2.08;;;;;;;23.44;100.00;101583.13;5037890;28;20057;-73
2022/08/22 09:37:03;;;;;;;11.73;2.80;;;;;;;23.60;100.00;101571.97;5052825;28;20060;-73
2022/08/22 09:39:51;;;;;;;11.35;2.40;;;;;;;23.67;98.57;101570.88;5045373;28;20056;-74
2022/08/22 09:42:22;;;;;;;7.38;2.15;;;;;;;23.71;95.16;101561.81;5045393;28;20029;-73
2022/08/22 09:45:18;;;;;;;15.65;2.47;;;;;;;23.76;94.72;101561.72;5046099;28;20025;-73
2022/08/22 09:48:01;;;;;;;13.55;2.22;;;;;;;23.82;91.38;101558.84;5037260;28;20037;-74
2022/08/22 09:50:39;;;;;;;10.10;2.55;;;;;;;23.96;87.97;101569.28;5036323;28;20040;-74
2022/08/22 09:53:20;;;;;;;8.45;2.05;;;;;;;24.13;90.28;101558.88;5054194;28;20029;-74
2022/08/22 09:56:03;;;;;;;11.18;2.20;;;;;;;24.31;89.71;101556.59;5064432;28;20058;-72
2022/08/22 09:59:02;;;;;;;12.73;2.42;;;;;;;24.51;88.43;101559.59;5047203;28;20025;-74
2022/08/22 10:01:57;;;;;;;8.38;2.30;;;;;;;24.69;85.01;101565.38;5050717;28;20031;-73
2022/08/22 10:04:46;;;;;;;26.65;3.40;;;;;;;24.74;87.10;101552.63;5051775;28;20047;-74
2022/08/22 10:07:33;;;;;;;16.23;2.72;;;;;;;24.87;85.00;101543.22;5058853;28;20058;-73
2022/08/22 10:10:24;;;;;;;6.70;2.00;;;;;;;24.66;83.65;101552.00;5042645;28;20087;-74
2022/08/22 10:13:21;;;;;;;6.47;1.90;;;;;;;24.71;84.48;101550.03;5036237;28;20037;-72
2022/08/22 10:16:23;;;;;;;10.93;3.00;;;;;;;24.94;82.84;101538.53;5046954;28;20470;-73
2022/08/22 10:19:09;;;;;;;7.72;2.20;;;;;;;25.11;80.03;101545.16;5044104;28;20060;-72
2022/08/22 10:22:11;;;;;;;10.75;2.45;;;;;;;25.27;79.24;101551.81;5054117;28;20036;-73
2022/08/22 10:24:57;;;;;;;9.43;2.30;;;;;;;25.37;80.33;101550.59;5051150;28;20033;-72
2022/08/22 10:27:46;;;;;;;12.02;2.35;;;;;;;25.32;79.00;101539.06;5045144;28;20039;-73
2022/08/22 10:30:24;;;;;;;8.93;2.42;;;;;;;25.53;80.38;101547.38;5050621;28;20428;-72
2022/08/22 10:33:02;;;;;;;9.55;2.40;;;;;;;25.70;77.88;101542.25;5039013;28;20473;-72
2022/08/22 10:35:29;;;;;;;11.90;2.10;;;;;;;25.71;70.10;101543.16;5057437;28;20033;-75
2022/08/22 10:37:59;;;;;;;12.02;2.65;;;;;;;25.72;70.57;101544.91;5049844;28;20155;-74
2022/08/22 10:40:31;;;;;;;6.15;1.65;;;;;;;26.03;72.37;101547.41;5046978;28;20034;-74
2022/08/22 10:43:09;;;;;;;9.30;2.00;;;;;;;25.70;70.05;101547.66;5042295;28;20060;-74
2022/08/22 10:45:42;;;;;;;10.07;2.17;;;;;;;25.92;74.26;101545.06;5036742;28;20098;-74
2022/08/22 10:48:08;;;;;;;8.25;2.30;;;;;;;26.01;71.92;101551.06;5039963;28;20072;-73
2022/08/22 10:50:39;;;;;;;11.32;2.28;;;;;;;26.04;74.59;101545.59;5047483;28;20477;-73
2022/08/22 10:56:02;;;;;;;10.32;2.10;;;;;;;26.53;70.31;101556.31;5055950;28;20036;-73
2022/08/22 10:58:34;;;;;;;9.23;2.22;;;;;;;26.86;71.73;101556.84;5056242;28;20029;-72
2022/08/22 11:01:03;;;;;;;13.95;2.42;;;;;;;26.73;64.00;101560.97;5056210;28;20024;-73
2022/08/22 11:03:40;;;;;;;6.40;1.45;;;;;;;26.89;65.15;101558.53;5056223;28;20029;-73
2022/08/22 11:06:13;;;;;;;6.43;1.92;;;;;;;26.42;63.85;101559.44;5044026;28;20037;-73
2022/08/22 11:08:53;;;;;;;;;;;;;;;26.08;65.20;101563.41;5065652;28;20041;-73
2022/08/22 11:11:32;;;;;;;8.63;2.00;;;;;;;25.43;67.28;101549.50;5066109;28;19908;-72
2022/08/22 11:14:19;;;;;;;8.18;2.17;;;;;;;25.20;73.37;101551.16;5045457;28;20159;-73
2022/08/22 11:16:57;;;;;;;5.63;1.95;;;;;;;25.15;70.11;101553.13;5055387;28;20059;-73
2022/08/22 11:19:32;;;;;;;7.88;2.15;;;;;;;25.41;69.39;101548.69;5044800;28;20044;-74
2022/08/22 11:22:09;;;;;;;8.52;1.77;;;;;;;25.87;68.70;101549.75;5046425;28;20112;-73
2022/08/22 11:25:20;;;;;;;10.77;2.42;;;;;;;26.51;67.13;101553.69;5055695;28;20047;-74
2022/08/22 11:28:00;;;;;;;5.93;1.75;;;;;;;27.14;63.76;101546.72;5058131;28;20546;-74
2022/08/22 11:30:55;;;;;;;7.20;2.03;;;;;;;27.10;61.10;101551.34;5045744;28;20078;-74
2022/08/22 11:33:36;;;;;;;8.13;2.00;;;;;;;27.02;61.56;101540.00;5031984;28;20099;-74
2022/08/22 11:36:23;;;;;;;8.68;1.90;;;;;;;27.47;63.35;101533.63;5044715;28;20070;-73
2022/08/22 11:39:18;;;;;;;11.48;2.25;;;;;;;27.90;59.36;101534.41;5039140;28;20038;-72
2022/08/22 11:42:09;;;;;;;8.10;2.15;;;;;;;28.41;56.05;101534.78;5040448;28;20025;-74
2022/08/22 11:44:44;;;;;;;7.18;1.95;;;;;;;28.70;55.49;101537.06;5042296;28;20366;-74
2022/08/22 11:47:14;;;;;;;7.85;2.17;;;;;;;28.34;54.38;101540.56;5038371;28;20475;-74
2022/08/22 11:49:49;;;;;;;8.93;2.47;;;;;;;28.41;55.79;101539.31;5045653;28;20029;-73
2022/08/22 11:52:49;;;;;;;5.95;2.05;;;;;;;28.89;53.01;101542.47;5052519;28;20051;-73
2022/08/22 11:55:30;;;;;;;7.15;2.13;;;;;;;29.18;53.72;101538.28;5043122;28;20078;-73
2022/08/22 11:58:40;;;;;;;5.50;1.83;;;;;;;29.62;50.97;101539.69;5054352;28;20100;-73
2022/08/22 12:01:20;;;;;;;10.20;2.30;;;;;;;29.14;49.85;101535.81;5044869;28;20041;-72
2022/08/22 12:04:08;;;;;;;9.55;2.38;;;;;;;28.56;52.39;101533.16;5035702;28;20029;-72
2022/08/22 12:06:56;;;;;;;7.00;2.00;;;;;;;28.85;55.15;101530.03;4995090;28;1089536;-73
2022/08/22 12:09:41;;;;;;;9.02;1.92;;;;;;;28.96;53.62;101532.19;5034797;28;20055;-73
2022/08/22 12:12:19;;;;;;;8.18;2.65;;;;;;;29.84;49.38;101531.25;5041048;28;20533;-73
2022/08/22 12:15:10;;;;;;;11.88;2.40;;;;;;;30.14;48.29;101540.56;5047789;28;20076;-73
2022/08/22 12:18:03;;;;;;;8.27;2.03;;;;;;;30.22;47.24;101533.78;5048853;28;20056;-72
2022/08/22 12:20:34;;;;;;;6.60;2.25;;;;;;;30.55;45.60;101532.88;5045821;28;20033;-73